createdAt,value
2023-05-31T00:00:20.109Z,18.70
2023-05-31T00:02:48.086Z,18.70
2023-05-31T00:05:15.684Z,18.70
2023-05-31T00:07:42.835Z,18.70
2023-05-31T00:10:11.010Z,18.70
2023-05-31T00:12:38.080Z,18.60
2023-05-31T00:15:08.752Z,18.60
2023-05-31T00:17:49.345Z,18.60
2023-05-31T00:23:03.034Z,18.60
2023-05-31T00:25:29.970Z,18.60
2023-05-31T00:27:58.244Z,18.60
2023-05-31T00:30:27.184Z,18.50
2023-05-31T00:32:54.190Z,18.50
2023-05-31T00:35:21.703Z,18.50
2023-05-31T00:37:48.619Z,18.50
2023-05-31T00:40:16.238Z,18.50
2023-05-31T00:42:43.282Z,18.50
2023-05-31T00:45:11.047Z,18.50
2023-05-31T00:47:40.253Z,18.50
2023-05-31T00:50:08.772Z,18.50
2023-05-31T00:52:36.756Z,18.50
2023-05-31T00:55:04.560Z,18.50
2023-05-31T00:57:32.214Z,18.50
2023-05-31T00:59:59.728Z,18.50
2023-05-31T01:02:27.654Z,18.50
2023-05-31T01:04:56.308Z,18.40
2023-05-31T01:07:23.726Z,18.40
2023-05-31T01:09:51.052Z,18.40
2023-05-31T01:12:26.402Z,18.40
2023-05-31T01:15:08.712Z,18.40
2023-05-31T01:17:46.516Z,18.30
2023-05-31T01:20:18.848Z,18.30
2023-05-31T01:23:14.038Z,18.30
2023-05-31T01:26:03.870Z,18.40
2023-05-31T01:28:37.395Z,18.30
2023-05-31T01:31:09.933Z,18.30
2023-05-31T01:33:38.430Z,18.30
2023-05-31T01:36:06.217Z,18.30
2023-05-31T01:38:33.215Z,18.30
2023-05-31T01:41:01.234Z,18.20
2023-05-31T01:43:30.720Z,18.30
2023-05-31T01:45:59.109Z,18.30
2023-05-31T01:48:27.120Z,18.20
2023-05-31T01:50:55.674Z,18.20
2023-05-31T01:53:23.107Z,18.20
2023-05-31T01:55:50.729Z,18.30
2023-05-31T01:58:19.278Z,18.20
2023-05-31T02:00:47.834Z,18.20
2023-05-31T02:03:15.296Z,18.10
2023-05-31T02:05:57.172Z,18.10
2023-05-31T02:08:25.066Z,18.00
2023-05-31T02:10:52.550Z,18.00
2023-05-31T02:13:20.734Z,18.10
2023-05-31T02:18:23.263Z,18.10
2023-05-31T02:20:50.779Z,18.00
2023-05-31T02:23:17.904Z,18.00
2023-05-31T02:25:47.257Z,18.00
2023-05-31T02:28:14.476Z,17.80
2023-05-31T02:30:42.530Z,17.80
2023-05-31T02:33:10.386Z,17.70
2023-05-31T02:35:38.730Z,17.70
2023-05-31T02:38:06.059Z,17.60
2023-05-31T02:40:33.032Z,17.60
2023-05-31T02:43:00.344Z,17.50
2023-05-31T02:45:27.341Z,17.50
2023-05-31T02:47:54.757Z,17.40
2023-05-31T02:50:22.171Z,17.40
2023-05-31T02:52:51.023Z,17.40
2023-05-31T02:55:18.025Z,17.40
2023-05-31T02:57:45.041Z,17.40
2023-05-31T03:00:16.880Z,17.20
2023-05-31T03:02:44.018Z,16.90
2023-05-31T03:05:11.576Z,16.80
2023-05-31T03:07:38.624Z,16.80
2023-05-31T03:10:10.023Z,16.80
2023-05-31T03:12:37.528Z,16.90
2023-05-31T03:15:06.538Z,16.90
2023-05-31T03:17:33.617Z,16.90
2023-05-31T03:20:00.624Z,16.80
2023-05-31T03:22:28.306Z,16.80
2023-05-31T03:24:55.403Z,16.90
2023-05-31T03:27:23.759Z,16.80
2023-05-31T03:29:51.444Z,16.80
2023-05-31T03:32:18.938Z,16.60
2023-05-31T03:34:45.950Z,16.70
2023-05-31T03:37:13.511Z,16.70
2023-05-31T03:39:40.695Z,16.80
2023-05-31T03:42:09.197Z,16.90
2023-05-31T03:44:38.097Z,17.00
2023-05-31T03:47:06.144Z,16.90
2023-05-31T03:49:33.168Z,16.90
2023-05-31T03:52:00.835Z,16.90
2023-05-31T03:54:28.426Z,17.00
2023-05-31T03:56:56.239Z,17.10
2023-05-31T03:59:23.316Z,17.20
2023-05-31T04:01:52.148Z,17.20
2023-05-31T04:04:19.837Z,17.30
2023-05-31T04:06:47.456Z,17.30
2023-05-31T04:09:14.671Z,17.30
2023-05-31T04:11:42.268Z,17.40
2023-05-31T04:14:09.896Z,17.40
2023-05-31T04:16:36.855Z,17.30
2023-05-31T04:19:06.297Z,17.40
2023-05-31T04:21:33.811Z,17.40
2023-05-31T04:24:01.401Z,17.50
2023-05-31T04:26:30.538Z,17.50
2023-05-31T04:28:58.602Z,17.50
2023-05-31T04:31:32.580Z,17.50
2023-05-31T04:34:07.484Z,17.50
2023-05-31T04:36:36.878Z,17.60
2023-05-31T04:39:04.427Z,17.50
2023-05-31T04:41:31.469Z,17.60
2023-05-31T04:43:59.276Z,17.60
2023-05-31T04:46:26.373Z,17.60
2023-05-31T04:48:53.874Z,17.60
2023-05-31T04:51:22.194Z,17.70
2023-05-31T04:53:50.061Z,17.70
2023-05-31T04:56:17.779Z,17.70
2023-05-31T04:58:45.293Z,17.80
2023-05-31T05:01:16.263Z,17.70
2023-05-31T05:03:44.030Z,17.80
2023-05-31T05:06:16.894Z,17.80
2023-05-31T05:08:46.562Z,17.90
2023-05-31T05:11:13.569Z,18.00
2023-05-31T05:13:44.340Z,18.00
2023-05-31T05:16:11.834Z,18.00
2023-05-31T05:18:39.459Z,18.10
2023-05-31T05:21:07.125Z,18.10
2023-05-31T05:23:36.098Z,18.10
2023-05-31T05:26:05.231Z,18.10
2023-05-31T05:28:32.266Z,18.10
2023-05-31T05:30:59.585Z,18.20
2023-05-31T05:33:29.227Z,18.20
2023-05-31T05:35:56.349Z,18.30
2023-05-31T05:38:23.424Z,18.30
2023-05-31T05:40:51.132Z,18.30
2023-05-31T05:43:19.481Z,18.40
2023-05-31T05:45:46.510Z,18.40
2023-05-31T05:48:15.138Z,18.40
2023-05-31T05:50:42.622Z,18.40
2023-05-31T05:53:09.595Z,18.40
2023-05-31T05:55:36.828Z,18.40
2023-05-31T05:58:03.869Z,18.50
2023-05-31T06:00:32.225Z,18.60
2023-05-31T06:02:59.719Z,18.70
2023-05-31T06:08:12.826Z,19.00
2023-05-31T06:10:41.839Z,19.10
2023-05-31T06:13:09.265Z,19.40
2023-05-31T06:15:37.984Z,19.80
2023-05-31T06:18:05.248Z,20.20
2023-05-31T06:20:32.724Z,20.90
2023-05-31T06:22:59.807Z,21.30
2023-05-31T06:25:27.204Z,21.60
2023-05-31T06:27:54.752Z,21.80
2023-05-31T06:30:22.476Z,21.90
2023-05-31T06:32:51.678Z,22.00
2023-05-31T06:35:19.023Z,22.10
2023-05-31T06:37:47.176Z,22.10
2023-05-31T06:40:14.642Z,21.90
2023-05-31T06:42:41.750Z,21.80
2023-05-31T06:45:10.231Z,21.70
2023-05-31T06:47:37.375Z,21.70
2023-05-31T06:50:06.914Z,21.80
2023-05-31T06:52:33.951Z,21.90
2023-05-31T06:55:01.550Z,21.90
2023-05-31T06:57:28.798Z,22.10
2023-05-31T06:59:55.977Z,22.30
2023-05-31T07:02:23.181Z,22.70
2023-05-31T07:04:50.238Z,22.80
2023-05-31T07:07:18.591Z,23.20
2023-05-31T07:09:46.844Z,23.70
2023-05-31T07:12:14.432Z,24.30
2023-05-31T07:14:41.515Z,25.00
2023-05-31T07:19:53.155Z,26.10
2023-05-31T07:22:23.347Z,26.50
2023-05-31T07:24:50.891Z,26.70
2023-05-31T07:27:19.622Z,26.70
2023-05-31T07:29:46.771Z,26.30
2023-05-31T07:32:13.824Z,25.70
2023-05-31T07:35:01.705Z,25.00
2023-05-31T07:37:29.296Z,24.60
2023-05-31T07:39:56.317Z,24.20
2023-05-31T07:42:23.339Z,23.90
2023-05-31T07:44:50.418Z,23.70
2023-05-31T07:50:02.842Z,23.30
2023-05-31T07:52:31.633Z,23.30
2023-05-31T07:54:58.823Z,23.30
2023-05-31T07:57:44.587Z,23.30
2023-05-31T08:00:14.434Z,23.30
2023-05-31T08:02:42.571Z,23.50
2023-05-31T08:05:11.130Z,23.70
2023-05-31T08:07:39.479Z,23.70
2023-05-31T08:10:07.829Z,23.70
2023-05-31T08:12:35.115Z,23.80
2023-05-31T08:15:02.213Z,24.20
2023-05-31T08:17:29.217Z,24.60
2023-05-31T08:19:56.978Z,24.90
2023-05-31T08:22:24.185Z,25.40
2023-05-31T08:24:52.686Z,25.90
2023-05-31T08:27:19.817Z,26.20
2023-05-31T08:29:46.926Z,26.30
2023-05-31T08:32:15.436Z,26.10
2023-05-31T08:34:46.164Z,25.90
2023-05-31T08:37:13.405Z,25.40
2023-05-31T08:39:40.517Z,25.10
2023-05-31T08:42:16.767Z,24.70
2023-05-31T08:44:44.714Z,24.40
2023-05-31T08:47:20.160Z,24.30
2023-05-31T08:49:47.967Z,24.20
2023-05-31T08:52:17.396Z,24.20
2023-05-31T08:54:45.635Z,24.20
2023-05-31T08:57:15.154Z,24.10
2023-05-31T08:59:43.475Z,24.00
2023-05-31T09:02:12.274Z,24.00
2023-05-31T09:04:42.048Z,24.10
2023-05-31T09:07:09.093Z,24.10
2023-05-31T09:09:36.652Z,24.10
2023-05-31T09:12:04.198Z,24.10
2023-05-31T09:14:33.532Z,24.10
2023-05-31T09:17:01.130Z,24.00
2023-05-31T09:19:28.562Z,24.10
2023-05-31T09:21:55.999Z,24.30
2023-05-31T09:24:23.516Z,24.70
2023-05-31T09:26:52.560Z,25.00
2023-05-31T09:29:21.958Z,25.30
2023-05-31T09:32:09.486Z,25.30
2023-05-31T09:34:36.611Z,25.20
2023-05-31T09:37:05.002Z,24.70
2023-05-31T09:39:32.635Z,24.50
2023-05-31T09:42:03.349Z,24.40
2023-05-31T09:44:30.441Z,24.20
2023-05-31T09:47:09.074Z,23.90
2023-05-31T09:49:36.926Z,23.80
2023-05-31T09:52:05.003Z,23.70
2023-05-31T09:54:39.313Z,23.80
2023-05-31T09:57:06.963Z,23.80
2023-05-31T09:59:34.235Z,23.60
2023-05-31T10:02:03.576Z,23.60
2023-05-31T10:04:31.406Z,23.60
2023-05-31T10:06:58.745Z,23.60
2023-05-31T10:09:25.772Z,23.60
2023-05-31T10:11:56.164Z,23.70
2023-05-31T10:14:27.386Z,23.70
2023-05-31T10:16:59.581Z,23.50
2023-05-31T10:19:41.565Z,23.50
2023-05-31T10:22:09.410Z,23.50
2023-05-31T10:24:46.744Z,23.50
2023-05-31T10:27:20.661Z,23.50
2023-05-31T10:29:53.325Z,23.50
2023-05-31T10:32:25.581Z,23.50
2023-05-31T10:34:54.665Z,23.50
2023-05-31T10:37:22.540Z,23.60
2023-05-31T10:39:55.365Z,23.70
2023-05-31T10:42:29.799Z,23.70
2023-05-31T10:45:07.349Z,23.80
2023-05-31T10:47:51.846Z,23.80
2023-05-31T10:50:21.679Z,23.80
2023-05-31T10:52:52.797Z,23.90
2023-05-31T10:55:22.812Z,23.90
2023-05-31T10:57:55.728Z,24.00
2023-05-31T11:00:24.804Z,24.00
2023-05-31T11:02:55.786Z,24.00
2023-05-31T11:05:28.780Z,24.00
2023-05-31T11:07:58.801Z,24.00
2023-05-31T11:10:28.024Z,24.00
2023-05-31T11:12:58.135Z,24.00
2023-05-31T11:15:41.251Z,24.00
2023-05-31T11:18:12.902Z,24.10
2023-05-31T11:20:41.483Z,24.20
2023-05-31T11:23:54.274Z,24.20
2023-05-31T11:26:21.994Z,24.10
2023-05-31T11:28:58.349Z,24.10
2023-05-31T11:32:00.842Z,24.00
2023-05-31T11:34:30.628Z,24.00
2023-05-31T11:37:02.706Z,24.00
2023-05-31T11:39:30.611Z,24.00
2023-05-31T11:41:58.902Z,24.00
2023-05-31T11:44:30.816Z,23.90
2023-05-31T11:47:07.159Z,23.90
2023-05-31T11:49:34.655Z,23.90
2023-05-31T11:52:04.906Z,23.90
2023-05-31T11:54:33.582Z,23.90
2023-05-31T11:57:04.188Z,24.00
2023-05-31T11:59:34.324Z,24.00
2023-05-31T12:02:03.313Z,24.00
2023-05-31T12:04:36.712Z,24.10
2023-05-31T12:07:08.097Z,24.20
2023-05-31T12:09:35.964Z,24.20
2023-05-31T12:12:06.844Z,24.30
2023-05-31T12:14:35.352Z,24.30
2023-05-31T12:17:04.564Z,24.30
2023-05-31T12:19:32.584Z,24.30
2023-05-31T12:22:00.230Z,24.40
2023-05-31T12:24:29.870Z,24.40
2023-05-31T12:26:58.492Z,24.40
2023-05-31T12:29:30.739Z,24.40
2023-05-31T12:32:06.738Z,24.40
2023-05-31T12:34:36.361Z,24.30
2023-05-31T12:40:10.490Z,24.40
2023-05-31T12:42:38.511Z,24.40
2023-05-31T12:45:06.894Z,24.40
2023-05-31T12:47:34.723Z,24.40
2023-05-31T12:50:06.202Z,24.40
2023-05-31T12:52:35.141Z,24.40
2023-05-31T12:55:05.825Z,24.40
2023-05-31T12:57:33.440Z,24.40
2023-05-31T13:00:01.931Z,24.50
2023-05-31T13:02:29.278Z,24.50
2023-05-31T13:04:58.778Z,24.60
2023-05-31T13:07:26.140Z,24.50
2023-05-31T13:09:53.512Z,24.60
2023-05-31T13:12:22.340Z,24.60
2023-05-31T13:14:49.371Z,24.70
2023-05-31T13:17:17.055Z,24.70
2023-05-31T13:19:47.156Z,24.70
2023-05-31T13:22:20.782Z,24.70
2023-05-31T13:24:47.676Z,24.70
2023-05-31T13:27:15.182Z,24.80
2023-05-31T13:29:43.535Z,24.80
2023-05-31T13:32:10.551Z,24.90
2023-05-31T13:34:37.635Z,24.90
2023-05-31T13:37:05.511Z,24.90
2023-05-31T13:39:32.916Z,24.90
2023-05-31T13:41:59.905Z,25.00
2023-05-31T13:44:26.968Z,25.00
2023-05-31T13:46:55.610Z,25.00
2023-05-31T13:49:23.152Z,25.00
2023-05-31T13:51:50.145Z,25.00
2023-05-31T13:54:17.952Z,25.00
2023-05-31T13:56:45.018Z,25.00
2023-05-31T13:59:12.049Z,25.00
2023-05-31T14:01:39.816Z,25.10
2023-05-31T14:04:09.099Z,25.10
2023-05-31T14:06:36.874Z,25.10
2023-05-31T14:09:04.114Z,25.10
2023-05-31T14:11:31.514Z,25.10
2023-05-31T14:13:58.574Z,25.00
2023-05-31T14:16:26.375Z,25.00
2023-05-31T14:18:55.599Z,25.00
2023-05-31T14:21:24.599Z,25.10
2023-05-31T14:23:52.027Z,25.20
2023-05-31T14:26:19.144Z,25.20
2023-05-31T14:28:46.561Z,25.20
2023-05-31T14:31:13.539Z,25.20
2023-05-31T14:33:41.458Z,25.20
2023-05-31T14:36:09.207Z,25.20
2023-05-31T14:38:37.894Z,25.20
2023-05-31T14:41:05.380Z,25.20
2023-05-31T14:43:32.812Z,25.20
2023-05-31T14:45:59.997Z,25.20
2023-05-31T14:48:27.089Z,25.20
2023-05-31T14:50:54.506Z,25.20
2023-05-31T14:53:21.523Z,25.30
2023-05-31T14:55:50.274Z,25.20
2023-05-31T14:58:17.352Z,25.30
2023-05-31T15:00:44.724Z,25.20
2023-05-31T15:03:11.703Z,25.20
2023-05-31T15:05:39.131Z,25.20
2023-05-31T15:08:06.402Z,25.20
2023-05-31T15:10:33.867Z,25.20
2023-05-31T15:13:02.227Z,25.20
2023-05-31T15:15:29.181Z,25.20
2023-05-31T15:17:56.226Z,25.20
2023-05-31T15:20:23.353Z,25.20
2023-05-31T15:22:50.483Z,25.20
2023-05-31T15:25:20.710Z,25.20
2023-05-31T15:27:48.187Z,25.20
2023-05-31T15:30:16.896Z,25.20
2023-05-31T15:32:44.371Z,25.10
2023-05-31T15:35:11.454Z,25.10
2023-05-31T15:37:38.574Z,25.20
2023-05-31T15:40:07.899Z,25.20
2023-05-31T15:42:35.122Z,25.20
2023-05-31T15:45:02.214Z,25.20
2023-05-31T15:47:30.742Z,25.20
2023-05-31T15:50:02.073Z,25.20
2023-05-31T15:52:29.506Z,25.20
2023-05-31T15:54:56.562Z,25.20
2023-05-31T15:57:24.023Z,25.20
2023-05-31T15:59:51.472Z,25.10
2023-05-31T16:02:18.553Z,25.10
2023-05-31T16:04:47.385Z,25.10
2023-05-31T16:07:15.072Z,25.20
2023-05-31T16:09:42.082Z,25.20
2023-05-31T16:12:09.700Z,25.10
2023-05-31T16:14:37.058Z,25.10
2023-05-31T16:19:52.469Z,25.20
2023-05-31T16:22:20.046Z,25.20
2023-05-31T16:24:47.025Z,25.20
2023-05-31T16:27:14.701Z,25.10
2023-05-31T16:29:41.785Z,25.10
2023-05-31T16:32:08.980Z,25.10
2023-05-31T16:34:36.704Z,25.10
2023-05-31T16:37:09.710Z,25.10
2023-05-31T16:39:37.177Z,25.10
2023-05-31T16:42:04.798Z,25.00
2023-05-31T16:44:32.204Z,25.00
2023-05-31T16:46:59.302Z,25.00
2023-05-31T16:49:26.369Z,25.00
2023-05-31T16:51:53.484Z,25.00
2023-05-31T16:54:21.932Z,25.00
2023-05-31T16:56:49.354Z,25.00
2023-05-31T16:59:16.735Z,25.00
2023-05-31T17:01:43.866Z,25.00
2023-05-31T17:04:10.931Z,25.00
2023-05-31T17:06:38.197Z,24.90
2023-05-31T17:09:05.356Z,24.90
2023-05-31T17:11:35.425Z,24.90
2023-05-31T17:14:03.199Z,24.90
2023-05-31T17:16:31.092Z,24.90
2023-05-31T17:18:58.205Z,24.80
2023-05-31T17:24:10.165Z,24.90
2023-05-31T17:26:38.533Z,24.90
2023-05-31T17:29:05.975Z,24.90
2023-05-31T17:31:33.845Z,24.80
2023-05-31T17:34:02.287Z,24.80
2023-05-31T17:36:29.446Z,24.80
2023-05-31T17:38:56.493Z,24.80
2023-05-31T17:41:23.973Z,24.80
2023-05-31T17:43:52.787Z,24.80
2023-05-31T17:46:19.978Z,24.80
2023-05-31T17:48:47.304Z,24.70
2023-05-31T17:51:15.053Z,24.70
2023-05-31T17:53:42.331Z,24.60
2023-05-31T17:56:10.505Z,24.70
2023-05-31T17:58:37.549Z,24.60
2023-05-31T18:01:06.439Z,24.60
2023-05-31T18:03:34.091Z,24.50
2023-05-31T18:06:01.393Z,24.50
2023-05-31T18:08:28.715Z,24.40
2023-05-31T18:10:55.888Z,24.40
2023-05-31T18:13:23.502Z,24.40
2023-05-31T18:15:50.656Z,24.30
2023-05-31T18:21:04.517Z,24.30
2023-05-31T18:23:31.543Z,24.20
2023-05-31T18:25:58.491Z,24.10
2023-05-31T18:28:25.520Z,24.10
2023-05-31T18:30:52.628Z,24.10
2023-05-31T18:33:20.968Z,24.00
2023-05-31T18:35:48.103Z,24.00
2023-05-31T18:38:15.089Z,23.90
2023-05-31T18:40:42.204Z,23.90
2023-05-31T18:43:10.960Z,23.90
2023-05-31T18:45:38.429Z,23.90
2023-05-31T18:48:07.611Z,23.90
2023-05-31T18:50:36.051Z,23.80
2023-05-31T18:53:03.057Z,23.80
2023-05-31T18:55:30.047Z,23.80
2023-05-31T18:57:57.105Z,23.70
2023-05-31T19:00:25.724Z,23.70
2023-05-31T19:02:54.309Z,23.70
2023-05-31T19:05:21.794Z,23.70
2023-05-31T19:10:34.612Z,23.60
2023-05-31T19:13:02.053Z,23.50
2023-05-31T19:15:29.829Z,23.50
2023-05-31T19:18:03.838Z,23.40
2023-05-31T19:20:48.502Z,23.40
2023-05-31T19:23:17.641Z,23.40
2023-05-31T19:25:45.110Z,23.30
2023-05-31T19:28:12.554Z,23.30
2023-05-31T19:30:42.783Z,23.20
2023-05-31T19:33:09.996Z,23.20
2023-05-31T19:35:37.206Z,23.20
2023-05-31T19:38:04.588Z,23.20
2023-05-31T19:40:33.366Z,23.10
2023-05-31T19:43:00.637Z,23.10
2023-05-31T19:45:28.114Z,23.00
2023-05-31T19:47:55.240Z,22.90
2023-05-31T19:50:23.756Z,22.90
2023-05-31T19:52:50.884Z,22.90
2023-05-31T19:55:17.864Z,22.90
2023-05-31T19:57:46.643Z,22.80
2023-05-31T20:00:14.320Z,22.80
2023-05-31T20:02:41.830Z,22.80
2023-05-31T20:05:09.778Z,22.70
2023-05-31T20:07:36.843Z,22.70
2023-05-31T20:10:04.472Z,22.70
2023-05-31T20:12:31.469Z,22.70
2023-05-31T20:15:01.276Z,22.70
2023-05-31T20:17:29.388Z,22.60
2023-05-31T20:19:56.413Z,22.60
2023-05-31T20:22:23.561Z,22.60
2023-05-31T20:24:50.638Z,22.50
2023-05-31T20:27:17.735Z,22.50
2023-05-31T20:29:45.104Z,22.50
2023-05-31T20:32:13.660Z,22.40
2023-05-31T20:34:40.799Z,22.50
2023-05-31T20:37:08.587Z,22.40
2023-05-31T20:39:35.691Z,22.40
2023-05-31T20:42:02.640Z,22.40
2023-05-31T20:44:30.140Z,22.30
2023-05-31T20:46:57.161Z,22.30
2023-05-31T20:49:25.667Z,22.30
2023-05-31T20:51:52.734Z,22.30
2023-05-31T20:54:19.765Z,22.30
2023-05-31T20:56:47.233Z,22.30
2023-05-31T20:59:14.842Z,22.20
2023-05-31T21:01:42.411Z,22.20
2023-05-31T21:04:10.017Z,22.20
2023-05-31T21:06:38.378Z,22.20
2023-05-31T21:09:05.667Z,22.20
2023-05-31T21:11:32.768Z,22.20
2023-05-31T21:14:00.317Z,22.20
2023-05-31T21:16:27.407Z,22.10
2023-05-31T21:18:54.471Z,22.10
2023-05-31T21:21:21.617Z,22.10
2023-05-31T21:23:50.143Z,22.10
2023-05-31T21:26:17.832Z,22.00
2023-05-31T21:28:45.094Z,21.90
2023-05-31T21:31:12.835Z,21.90
2023-05-31T21:33:40.482Z,21.80
2023-05-31T21:36:08.214Z,21.80
2023-05-31T21:38:35.366Z,21.70
2023-05-31T21:41:05.903Z,21.60
2023-05-31T21:46:19.823Z,21.40
2023-05-31T21:48:46.960Z,21.40
2023-05-31T21:51:14.035Z,21.40
2023-05-31T21:53:41.640Z,21.40
2023-05-31T21:56:10.154Z,21.30
2023-05-31T21:58:38.309Z,21.30
2023-05-31T22:01:06.377Z,21.20
2023-05-31T22:03:33.536Z,21.20
2023-05-31T22:06:00.593Z,21.10
2023-05-31T22:08:27.659Z,21.10
2023-05-31T22:10:54.772Z,21.10
2023-05-31T22:13:23.554Z,21.00
2023-05-31T22:15:53.276Z,20.90
2023-05-31T22:18:21.414Z,20.80
2023-05-31T22:20:54.579Z,20.80
2023-05-31T22:23:23.462Z,20.70
2023-05-31T22:25:51.245Z,20.70
2023-05-31T22:28:19.296Z,20.50
2023-05-31T22:30:47.920Z,20.50
2023-05-31T22:33:15.450Z,20.50
2023-05-31T22:35:42.428Z,20.50
2023-05-31T22:38:09.457Z,20.40
2023-05-31T22:40:37.640Z,20.30
2023-05-31T22:43:05.725Z,20.30
2023-05-31T22:45:32.758Z,20.30
2023-05-31T22:48:01.307Z,20.30
2023-05-31T22:50:28.591Z,20.30
2023-05-31T22:52:56.292Z,20.10
2023-05-31T22:55:23.393Z,20.10
2023-05-31T22:57:50.462Z,19.90
2023-05-31T23:00:18.426Z,20.00
2023-05-31T23:02:45.568Z,19.90
2023-05-31T23:05:14.062Z,19.90
2023-05-31T23:07:47.773Z,19.70
2023-05-31T23:10:16.033Z,19.70
2023-05-31T23:12:44.508Z,19.70
2023-05-31T23:15:12.249Z,19.50
2023-05-31T23:17:41.265Z,19.50
2023-05-31T23:20:15.675Z,19.60
2023-05-31T23:22:45.681Z,19.60
2023-05-31T23:27:59.518Z,19.50
2023-05-31T23:30:26.701Z,19.50
2023-05-31T23:32:53.827Z,19.50
2023-05-31T23:35:21.326Z,19.50
2023-05-31T23:37:49.733Z,19.50
2023-05-31T23:40:17.335Z,19.50
2023-05-31T23:42:44.337Z,19.60
2023-05-31T23:45:12.468Z,19.50
2023-05-31T23:47:40.856Z,19.30
2023-05-31T23:50:10.353Z,19.40
2023-05-31T23:52:38.463Z,19.40
2023-05-31T23:55:07.598Z,19.50
2023-05-31T23:57:35.506Z,19.50
